createdAt,value
2018-09-30T00:01:09.263Z,95188.49
2018-09-30T00:03:38.114Z,95191.97
2018-09-30T00:06:06.891Z,95191.16
2018-09-30T00:08:36.035Z,95199.98
2018-09-30T00:11:04.864Z,95198.96
2018-09-30T00:13:33.776Z,95192.30
2018-09-30T00:16:02.628Z,95199.30
2018-09-30T00:18:31.860Z,95197.39
2018-09-30T00:21:01.372Z,95196.00
2018-09-30T00:23:34.310Z,95201.88
2018-09-30T00:26:08.227Z,95203.83
2018-09-30T00:28:37.082Z,95206.22
2018-09-30T00:31:05.987Z,95204.09
2018-09-30T00:33:38.555Z,95206.05
2018-09-30T00:36:07.474Z,95200.66
2018-09-30T00:38:36.491Z,95202.20
2018-09-30T00:41:05.737Z,95200.97
2018-09-30T00:43:34.524Z,95201.67
2018-09-30T00:46:03.332Z,95202.41
2018-09-30T00:48:32.323Z,95203.60
2018-09-30T00:51:01.325Z,95216.58
2018-09-30T00:53:30.124Z,95221.42
2018-09-30T00:55:59.030Z,95220.11
2018-09-30T00:58:27.871Z,95227.81
2018-09-30T01:00:56.908Z,95224.16
2018-09-30T01:03:25.780Z,95228.30
2018-09-30T01:05:54.603Z,95224.67
2018-09-30T01:08:23.460Z,95231.36
2018-09-30T01:10:52.351Z,95234.58
2018-09-30T01:13:21.216Z,95234.66
2018-09-30T01:15:50.031Z,95235.70
2018-09-30T01:18:18.821Z,95230.72
2018-09-30T01:20:48.054Z,95225.77
2018-09-30T01:23:17.233Z,95231.53
2018-09-30T01:25:46.029Z,95228.09
2018-09-30T01:28:15.523Z,95236.13
2018-09-30T01:30:44.380Z,95232.76
2018-09-30T01:33:13.222Z,95235.70
2018-09-30T01:35:42.012Z,95239.33
2018-09-30T01:38:10.870Z,95239.55
2018-09-30T01:40:39.783Z,95241.45
2018-09-30T01:43:08.632Z,95230.13
2018-09-30T01:45:37.504Z,95230.43
2018-09-30T01:48:06.564Z,95229.69
2018-09-30T01:50:35.380Z,95241.11
2018-09-30T01:53:04.236Z,95240.25
2018-09-30T01:55:33.040Z,95244.79
2018-09-30T01:58:01.887Z,95241.04
2018-09-30T02:00:30.832Z,95237.17
2018-09-30T02:03:00.004Z,95240.52
2018-09-30T02:05:28.971Z,95246.31
2018-09-30T02:07:57.775Z,95245.16
2018-09-30T02:10:26.655Z,95246.79
2018-09-30T02:12:55.484Z,95245.67
2018-09-30T02:15:24.427Z,95247.31
2018-09-30T02:17:53.319Z,95242.64
2018-09-30T02:20:22.191Z,95250.02
2018-09-30T02:22:51.692Z,95245.00
2018-09-30T02:25:20.515Z,95243.96
2018-09-30T02:27:49.374Z,95239.34
2018-09-30T02:30:18.287Z,95244.66
2018-09-30T02:32:47.080Z,95239.10
2018-09-30T02:35:15.859Z,95235.98
2018-09-30T02:37:44.735Z,95234.85
2018-09-30T02:40:13.581Z,95240.11
2018-09-30T02:42:42.383Z,95246.67
2018-09-30T02:45:11.226Z,95246.05
2018-09-30T02:47:40.068Z,95245.83
2018-09-30T02:50:08.889Z,95251.15
2018-09-30T02:52:37.735Z,95257.37
2018-09-30T02:55:06.536Z,95253.44
2018-09-30T02:57:35.581Z,95252.87
2018-09-30T03:00:05.934Z,95251.75
2018-09-30T03:02:34.805Z,95262.63
2018-09-30T03:05:03.655Z,95257.37
2018-09-30T03:07:37.645Z,95258.87
2018-09-30T03:10:07.630Z,95261.65
2018-09-30T03:12:36.468Z,95272.84
2018-09-30T03:15:05.345Z,95268.17
2018-09-30T03:17:34.168Z,95270.14
2018-09-30T03:20:03.008Z,95267.48
2018-09-30T03:22:31.867Z,95275.36
2018-09-30T03:25:00.678Z,95273.73
2018-09-30T03:27:29.511Z,95274.11
2018-09-30T03:29:58.338Z,95279.67
2018-09-30T03:32:27.215Z,95277.88
2018-09-30T03:34:55.980Z,95280.94
2018-09-30T03:37:24.788Z,95279.81
2018-09-30T03:39:53.581Z,95285.32
2018-09-30T03:42:22.495Z,95292.42
2018-09-30T03:44:51.361Z,95290.75
2018-09-30T03:47:20.145Z,95291.80
2018-09-30T03:49:48.956Z,95291.75
2018-09-30T03:52:17.931Z,95292.42
2018-09-30T03:54:46.779Z,95290.17
2018-09-30T03:57:15.640Z,95296.17
2018-09-30T03:59:44.913Z,95296.23
2018-09-30T04:02:13.920Z,95292.06
2018-09-30T04:04:42.723Z,95294.91
2018-09-30T04:07:11.522Z,95295.63
2018-09-30T04:09:40.383Z,95298.48
2018-09-30T04:12:09.475Z,95302.48
2018-09-30T04:14:38.264Z,95304.30
2018-09-30T04:17:07.101Z,95305.66
2018-09-30T04:19:36.166Z,95303.66
2018-09-30T04:22:05.135Z,95305.29
2018-09-30T04:24:34.055Z,95309.14
2018-09-30T04:27:02.862Z,95311.48
2018-09-30T04:29:31.672Z,95314.51
2018-09-30T04:32:00.482Z,95317.58
2018-09-30T04:34:29.340Z,95319.94
2018-09-30T04:36:58.136Z,95318.70
2018-09-30T04:39:26.925Z,95325.11
2018-09-30T04:41:55.728Z,95331.98
2018-09-30T04:44:24.543Z,95326.42
2018-09-30T04:46:53.341Z,95333.66
2018-09-30T04:49:22.143Z,95336.27
2018-09-30T04:51:50.968Z,95333.73
2018-09-30T04:54:19.922Z,95339.95
2018-09-30T04:56:48.768Z,95335.57
2018-09-30T04:59:17.986Z,95335.08
2018-09-30T05:01:46.811Z,95336.03
2018-09-30T05:04:15.600Z,95332.41
2018-09-30T05:06:44.365Z,95333.23
2018-09-30T05:09:13.159Z,95329.81
2018-09-30T05:11:41.981Z,95330.69
2018-09-30T05:14:10.776Z,95337.98
2018-09-30T05:16:39.901Z,95335.31
2018-09-30T05:19:08.838Z,95329.83
2018-09-30T05:21:37.715Z,95336.45
2018-09-30T05:24:06.923Z,95337.18
2018-09-30T05:26:35.800Z,95337.36
2018-09-30T05:29:05.226Z,95340.57
2018-09-30T05:31:34.420Z,95342.81
2018-09-30T05:34:03.276Z,95336.52
2018-09-30T05:36:32.074Z,95345.16
2018-09-30T05:39:01.040Z,95347.11
2018-09-30T05:41:29.937Z,95348.00
2018-09-30T05:43:58.798Z,95349.49
2018-09-30T05:46:27.712Z,95351.80
2018-09-30T05:48:56.831Z,95353.78
2018-09-30T05:51:25.916Z,95352.88
2018-09-30T05:53:54.790Z,95350.61
2018-09-30T05:56:25.616Z,95351.13
2018-09-30T05:58:54.941Z,95352.86
2018-09-30T06:01:23.860Z,95359.42
2018-09-30T06:03:52.680Z,95354.26
2018-09-30T06:06:21.897Z,95355.12
2018-09-30T06:08:50.793Z,95353.88
2018-09-30T06:11:20.218Z,95359.56
2018-09-30T06:13:49.027Z,95358.53
2018-09-30T06:16:18.039Z,95365.69
2018-09-30T06:18:46.927Z,95358.30
2018-09-30T06:21:15.839Z,95366.52
2018-09-30T06:23:44.827Z,95359.52
2018-09-30T06:26:14.071Z,95355.36
2018-09-30T06:28:42.888Z,95364.77
2018-09-30T06:31:11.756Z,95372.36
2018-09-30T06:33:40.521Z,95370.78
2018-09-30T06:36:09.328Z,95374.01
2018-09-30T06:38:38.116Z,95379.33
2018-09-30T06:41:07.140Z,95375.95
2018-09-30T06:43:35.978Z,95374.48
2018-09-30T06:46:04.786Z,95377.64
2018-09-30T06:48:33.824Z,95375.09
2018-09-30T06:51:02.868Z,95382.20
2018-09-30T06:53:31.911Z,95377.09
2018-09-30T06:56:00.787Z,95376.79
2018-09-30T06:58:29.877Z,95378.17
2018-09-30T07:00:58.796Z,95377.98
2018-09-30T07:03:27.977Z,95376.98
2018-09-30T07:05:56.810Z,95377.62
2018-09-30T07:08:27.494Z,95380.21
2018-09-30T07:10:56.414Z,95378.16
2018-09-30T07:13:25.328Z,95373.25
2018-09-30T07:15:54.180Z,95369.48
2018-09-30T07:18:23.028Z,95374.16
2018-09-30T07:20:51.889Z,95370.42
2018-09-30T07:23:20.801Z,95377.34
2018-09-30T07:25:49.627Z,95378.73
2018-09-30T07:28:18.432Z,95381.99
2018-09-30T07:30:47.284Z,95382.66
2018-09-30T07:33:16.204Z,95384.77
2018-09-30T07:35:45.545Z,95391.36
2018-09-30T07:38:14.536Z,95391.66
2018-09-30T07:40:43.360Z,95399.79
2018-09-30T07:43:12.187Z,95399.16
2018-09-30T07:45:40.994Z,95395.94
2018-09-30T07:48:09.800Z,95396.53
2018-09-30T07:50:38.801Z,95395.81
2018-09-30T07:53:07.767Z,95393.79
2018-09-30T07:55:36.679Z,95397.02
2018-09-30T07:58:05.534Z,95399.56
2018-09-30T08:00:34.323Z,95403.13
2018-09-30T08:03:03.606Z,95402.91
2018-09-30T08:05:32.532Z,95409.91
2018-09-30T08:08:01.389Z,95410.00
2018-09-30T08:10:33.186Z,95404.75
2018-09-30T08:13:01.993Z,95407.06
2018-09-30T08:15:30.912Z,95404.44
2018-09-30T08:17:59.763Z,95403.41
2018-09-30T08:20:28.597Z,95400.45
2018-09-30T08:22:57.511Z,95402.83
2018-09-30T08:25:26.396Z,95409.61
2018-09-30T08:27:55.225Z,95406.25
2018-09-30T08:30:25.379Z,95413.05
2018-09-30T08:32:54.271Z,95412.73
2018-09-30T08:35:23.184Z,95404.53
2018-09-30T08:37:57.228Z,95405.44
2018-09-30T08:40:31.185Z,95403.72
2018-09-30T08:43:00.084Z,95400.08
2018-09-30T08:45:29.039Z,95405.72
2018-09-30T08:47:58.188Z,95405.44
2018-09-30T08:50:27.029Z,95398.45
2018-09-30T08:52:56.064Z,95402.91
2018-09-30T08:55:25.010Z,95395.81
2018-09-30T08:57:53.976Z,95393.16
2018-09-30T09:00:22.840Z,95398.48
2018-09-30T09:02:51.654Z,95393.73
2018-09-30T09:05:20.564Z,95388.75
2018-09-30T09:07:49.365Z,95386.97
2018-09-30T09:10:18.249Z,95390.88
2018-09-30T09:12:47.084Z,95390.65
2018-09-30T09:15:15.949Z,95380.02
2018-09-30T09:17:44.785Z,95383.92
2018-09-30T09:20:13.608Z,95381.82
2018-09-30T09:22:42.451Z,95378.50
2018-09-30T09:25:14.522Z,95374.75
2018-09-30T09:27:43.508Z,95377.16
2018-09-30T09:30:12.417Z,95368.16
2018-09-30T09:32:41.249Z,95376.64
2018-09-30T09:35:11.068Z,95369.47
2018-09-30T09:37:39.990Z,95364.44
2018-09-30T09:40:10.389Z,95375.53
2018-09-30T09:42:39.416Z,95363.62
2018-09-30T09:45:08.898Z,95372.27
2018-09-30T09:47:37.692Z,95365.11
2018-09-30T09:50:07.596Z,95362.69
2018-09-30T09:52:36.940Z,95356.49
2018-09-30T09:55:06.055Z,95362.98
2018-09-30T09:57:34.876Z,95349.22
2018-09-30T10:00:04.994Z,95363.44
2018-09-30T10:02:33.786Z,95354.66
2018-09-30T10:05:02.633Z,95352.42
2018-09-30T10:07:31.593Z,95349.48
2018-09-30T10:10:00.512Z,95357.47
2018-09-30T10:12:29.415Z,95354.80
2018-09-30T10:14:58.217Z,95352.84
2018-09-30T10:17:27.015Z,95354.02
2018-09-30T10:19:55.808Z,95347.70
2018-09-30T10:22:24.611Z,95340.53
2018-09-30T10:24:53.502Z,95345.03
2018-09-30T10:27:22.387Z,95337.97
2018-09-30T10:29:51.200Z,95346.05
2018-09-30T10:32:20.103Z,95338.38
2018-09-30T10:34:48.920Z,95340.97
2018-09-30T10:37:17.838Z,95344.91
2018-09-30T10:39:46.621Z,95345.59
2018-09-30T10:42:15.444Z,95341.41
2018-09-30T10:44:44.245Z,95342.06
2018-09-30T10:47:13.096Z,95338.61
2018-09-30T10:49:41.930Z,95336.69
2018-09-30T10:52:10.825Z,95332.17
2018-09-30T10:54:39.678Z,95337.25
2018-09-30T10:57:08.559Z,95340.28
2018-09-30T10:59:37.432Z,95333.78
2018-09-30T11:02:06.425Z,95327.30
2018-09-30T11:04:35.356Z,95332.53
2018-09-30T11:07:04.271Z,95326.67
2018-09-30T11:09:33.050Z,95326.53
2018-09-30T11:12:02.017Z,95327.03
2018-09-30T11:14:31.224Z,95324.70
2018-09-30T11:17:00.179Z,95313.13
2018-09-30T11:19:28.998Z,95307.11
2018-09-30T11:21:57.864Z,95314.36
2018-09-30T11:24:26.681Z,95309.89
2018-09-30T11:26:55.583Z,95305.83
2018-09-30T11:29:24.565Z,95296.84
2018-09-30T11:31:53.465Z,95297.41
2018-09-30T11:34:22.453Z,95299.95
2018-09-30T11:36:51.335Z,95292.08
2018-09-30T11:39:20.178Z,95286.36
2018-09-30T11:41:48.980Z,95287.83
2018-09-30T11:44:17.779Z,95297.41
2018-09-30T11:46:46.573Z,95293.56
2018-09-30T11:49:15.357Z,95286.09
2018-09-30T11:51:44.190Z,95288.22
2018-09-30T11:54:13.056Z,95290.25
2018-09-30T11:56:41.861Z,95284.92
2018-09-30T11:59:10.794Z,95285.94
2018-09-30T12:01:39.594Z,95283.95
2018-09-30T12:04:08.684Z,95280.45
2018-09-30T12:06:37.546Z,95281.95
2018-09-30T12:09:08.473Z,95278.00
2018-09-30T12:11:37.377Z,95279.70
2018-09-30T12:14:06.240Z,95274.42
2018-09-30T12:16:35.274Z,95273.97
2018-09-30T12:19:04.074Z,95276.91
2018-09-30T12:21:32.912Z,95271.38
2018-09-30T12:24:01.830Z,95264.52
2018-09-30T12:26:30.823Z,95267.59
2018-09-30T12:28:59.610Z,95268.28
2018-09-30T12:31:28.544Z,95262.98
2018-09-30T12:33:57.680Z,95255.53
2018-09-30T12:36:26.637Z,95260.41
2018-09-30T12:38:55.524Z,95246.45
2018-09-30T12:41:24.496Z,95247.20
2018-09-30T12:43:53.383Z,95244.34
2018-09-30T12:46:22.240Z,95241.70
2018-09-30T12:48:51.072Z,95239.67
2018-09-30T12:51:19.857Z,95239.83
2018-09-30T12:53:48.796Z,95233.16
2018-09-30T12:56:17.635Z,95236.91
2018-09-30T12:58:46.493Z,95229.64
2018-09-30T13:01:15.365Z,95228.95
2018-09-30T13:03:44.286Z,95220.89
2018-09-30T13:06:13.396Z,95227.36
2018-09-30T13:08:42.270Z,95226.43
2018-09-30T13:11:11.200Z,95228.63
2018-09-30T13:13:40.080Z,95227.30
2018-09-30T13:16:09.049Z,95223.85
2018-09-30T13:18:38.040Z,95219.20
2018-09-30T13:21:07.073Z,95214.44
2018-09-30T13:23:36.176Z,95207.36
2018-09-30T13:26:05.012Z,95207.87
2018-09-30T13:28:33.860Z,95212.75
2018-09-30T13:31:02.704Z,95213.87
2018-09-30T13:33:31.536Z,95221.30
2018-09-30T13:36:00.691Z,95217.45
2018-09-30T13:38:29.516Z,95207.77
2018-09-30T13:40:58.553Z,95208.97
2018-09-30T13:43:29.650Z,95212.17
2018-09-30T13:45:58.612Z,95212.16
2018-09-30T13:48:27.706Z,95213.28
2018-09-30T13:50:56.704Z,95210.33
2018-09-30T13:53:25.593Z,95207.95
2018-09-30T13:55:54.522Z,95209.42
2018-09-30T13:58:23.351Z,95209.34
2018-09-30T14:00:52.367Z,95209.55
2018-09-30T14:03:21.265Z,95214.09
2018-09-30T14:05:50.177Z,95212.17
2018-09-30T14:08:19.064Z,95212.63
2018-09-30T14:10:47.856Z,95213.94
2018-09-30T14:13:16.709Z,95207.89
2018-09-30T14:15:45.868Z,95214.31
2018-09-30T14:18:14.727Z,95209.89
2018-09-30T14:20:43.568Z,95214.34
2018-09-30T14:23:12.518Z,95210.62
2018-09-30T14:25:41.449Z,95216.02
2018-09-30T14:28:10.247Z,95219.52
2018-09-30T14:30:39.083Z,95208.34
2018-09-30T14:33:08.152Z,95208.97
2018-09-30T14:35:37.520Z,95205.61
2018-09-30T14:38:06.562Z,95209.22
2018-09-30T14:40:35.365Z,95211.34
2018-09-30T14:43:04.240Z,95203.83
2018-09-30T14:45:33.067Z,95202.38
2018-09-30T14:48:01.950Z,95212.09
2018-09-30T14:50:32.231Z,95210.16
2018-09-30T14:53:01.433Z,95211.89
2018-09-30T14:55:30.433Z,95216.59
2018-09-30T14:57:59.368Z,95209.23
2018-09-30T15:00:28.204Z,95217.88
2018-09-30T15:02:57.035Z,95214.23
2018-09-30T15:05:25.833Z,95217.48
2018-09-30T15:07:54.694Z,95211.30
2018-09-30T15:10:23.601Z,95210.95
2018-09-30T15:12:52.449Z,95209.98
2018-09-30T15:15:21.402Z,95212.30
2018-09-30T15:17:50.165Z,95203.29
2018-09-30T15:20:19.116Z,95213.75
2018-09-30T15:22:47.980Z,95213.52
2018-09-30T15:25:16.892Z,95200.37
2018-09-30T15:27:45.773Z,95208.45
2018-09-30T15:30:14.718Z,95210.91
2018-09-30T15:32:43.548Z,95199.98
2018-09-30T15:35:12.655Z,95204.84
2018-09-30T15:37:41.648Z,95201.30
2018-09-30T15:40:10.541Z,95190.06
2018-09-30T15:42:39.353Z,95198.16
2018-09-30T15:45:08.277Z,95196.84
2018-09-30T15:47:37.103Z,95200.67
2018-09-30T15:50:06.335Z,95200.87
2018-09-30T15:52:35.132Z,95209.95
2018-09-30T15:55:10.269Z,95206.20
2018-09-30T15:57:39.130Z,95206.83
2018-09-30T16:00:08.109Z,95206.20
2018-09-30T16:02:36.998Z,95207.09
2018-09-30T16:05:05.923Z,95204.47
2018-09-30T16:07:34.771Z,95204.45
2018-09-30T16:10:03.782Z,95204.27
2018-09-30T16:12:32.709Z,95198.50
2018-09-30T16:15:01.545Z,95196.02
2018-09-30T16:17:30.367Z,95195.52
2018-09-30T16:19:59.799Z,95186.69
2018-09-30T16:22:28.609Z,95197.39
2018-09-30T16:24:57.624Z,95188.70
2018-09-30T16:27:26.496Z,95186.27
2018-09-30T16:29:55.316Z,95191.52
2018-09-30T16:32:24.230Z,95188.81
2018-09-30T16:34:53.258Z,95190.52
2018-09-30T16:37:22.178Z,95197.39
2018-09-30T16:39:51.004Z,95196.18
2018-09-30T16:42:19.932Z,95203.25
2018-09-30T16:44:48.756Z,95198.50
2018-09-30T16:47:17.571Z,95198.64
2018-09-30T16:49:46.463Z,95210.02
2018-09-30T16:52:15.434Z,95202.14
2018-09-30T16:54:44.454Z,95208.52
2018-09-30T16:57:13.322Z,95206.28
2018-09-30T16:59:42.297Z,95202.02
2018-09-30T17:02:12.152Z,95204.66
2018-09-30T17:04:41.040Z,95205.83
2018-09-30T17:07:09.941Z,95200.77
2018-09-30T17:09:38.825Z,95201.27
2018-09-30T17:12:08.896Z,95208.97
2018-09-30T17:14:37.788Z,95215.97
2018-09-30T17:17:07.123Z,95215.53
2018-09-30T17:19:35.936Z,95207.87
2018-09-30T17:22:04.823Z,95212.20
2018-09-30T17:24:33.837Z,95216.85
2018-09-30T17:29:30.569Z,95215.70
2018-09-30T17:31:59.482Z,95217.52
2018-09-30T17:34:28.426Z,95217.61
2018-09-30T17:36:57.282Z,95221.34
2018-09-30T17:39:26.320Z,95219.42
2018-09-30T17:41:55.279Z,95226.91
2018-09-30T17:44:24.141Z,95218.92
2018-09-30T17:46:52.967Z,95225.30
2018-09-30T17:49:21.884Z,95225.80
2018-09-30T17:51:50.788Z,95217.92
2018-09-30T17:54:19.623Z,95224.91
2018-09-30T17:56:48.529Z,95226.49
2018-09-30T17:59:17.724Z,95229.03
2018-09-30T18:01:46.770Z,95222.34
2018-09-30T18:04:15.780Z,95223.97
2018-09-30T18:06:44.693Z,95220.79
2018-09-30T18:09:13.749Z,95221.53
2018-09-30T18:11:42.973Z,95222.17
2018-09-30T18:14:11.848Z,95229.84
2018-09-30T18:16:40.681Z,95225.78
2018-09-30T18:19:09.661Z,95226.28
2018-09-30T18:21:38.620Z,95216.09
2018-09-30T18:24:08.329Z,95216.61
2018-09-30T18:26:37.539Z,95223.14
2018-09-30T18:29:06.736Z,95223.80
2018-09-30T18:31:35.961Z,95223.14
2018-09-30T18:34:06.177Z,95221.13
2018-09-30T18:36:35.313Z,95231.34
2018-09-30T18:39:05.308Z,95223.76
2018-09-30T18:41:34.298Z,95226.39
2018-09-30T18:44:03.426Z,95221.63
2018-09-30T18:46:32.708Z,95217.28
2018-09-30T18:49:01.892Z,95216.73
2018-09-30T18:51:31.038Z,95205.48
2018-09-30T18:54:00.000Z,95215.70
2018-09-30T18:56:28.966Z,95213.77
2018-09-30T18:58:57.941Z,95207.40
2018-09-30T19:01:26.783Z,95202.36
2018-09-30T19:03:55.683Z,95205.98
2018-09-30T19:06:24.607Z,95207.42
2018-09-30T19:08:53.524Z,95201.16
2018-09-30T19:11:22.406Z,95197.53
2018-09-30T19:13:51.281Z,95200.85
2018-09-30T19:16:20.202Z,95195.59
2018-09-30T19:18:49.052Z,95186.89
2018-09-30T19:21:17.857Z,95191.64
2018-09-30T19:23:46.776Z,95194.28
2018-09-30T19:26:15.877Z,95186.53
2018-09-30T19:28:44.946Z,95186.91
2018-09-30T19:31:13.795Z,95190.16
2018-09-30T19:33:42.660Z,95183.38
2018-09-30T19:36:11.613Z,95186.77
2018-09-30T19:38:40.645Z,95181.33
2018-09-30T19:41:09.781Z,95180.45
2018-09-30T19:43:38.843Z,95175.77
2018-09-30T19:46:08.442Z,95181.64
2018-09-30T19:48:37.344Z,95175.70
2018-09-30T19:51:06.310Z,95169.75
2018-09-30T19:53:35.188Z,95162.16
2018-09-30T19:56:04.106Z,95164.38
2018-09-30T19:58:33.131Z,95160.32
2018-09-30T20:01:02.106Z,95158.49
2018-09-30T20:03:31.055Z,95159.01
2018-09-30T20:05:59.900Z,95155.27
2018-09-30T20:08:28.787Z,95153.24
2018-09-30T20:10:57.785Z,95155.87
2018-09-30T20:13:26.645Z,95154.05
2018-09-30T20:15:55.479Z,95144.64
2018-09-30T20:18:24.353Z,95145.36
2018-09-30T20:20:53.271Z,95149.61
2018-09-30T20:23:22.313Z,95143.95
2018-09-30T20:25:51.294Z,95141.44
2018-09-30T20:28:20.132Z,95141.56
2018-09-30T20:30:49.053Z,95138.31
2018-09-30T20:33:17.860Z,95140.44
2018-09-30T20:35:46.695Z,95131.44
2018-09-30T20:38:16.276Z,95133.98
2018-09-30T20:40:45.100Z,95136.50
2018-09-30T20:43:13.925Z,95132.05
2018-09-30T20:45:42.784Z,95129.43
2018-09-30T20:48:11.704Z,95123.94
2018-09-30T20:50:40.581Z,95123.36
2018-09-30T20:53:09.480Z,95128.61
2018-09-30T20:55:38.304Z,95124.36
2018-09-30T20:58:07.336Z,95121.11
2018-09-30T21:00:36.372Z,95123.36
2018-09-30T21:03:05.222Z,95122.63
2018-09-30T21:05:53.053Z,95121.94
2018-09-30T21:08:21.885Z,95112.86
2018-09-30T21:10:50.692Z,95113.67
2018-09-30T21:13:19.459Z,95118.31
2018-09-30T21:15:48.424Z,95104.48
2018-09-30T21:18:17.242Z,95103.48
2018-09-30T21:20:46.056Z,95109.04
2018-09-30T21:23:14.929Z,95097.61
2018-09-30T21:25:43.744Z,95096.06
2018-09-30T21:28:12.666Z,95086.68
2018-09-30T21:30:41.766Z,95083.55
2018-09-30T21:33:10.622Z,95087.29
2018-09-30T21:35:39.437Z,95083.97
2018-09-30T21:38:08.204Z,95084.05
2018-09-30T21:40:37.011Z,95077.48
2018-09-30T21:43:05.872Z,95078.88
2018-09-30T21:45:34.755Z,95068.28
2018-09-30T21:48:03.566Z,95066.97
2018-09-30T21:50:32.459Z,95060.91
2018-09-30T21:53:01.348Z,95060.72
2018-09-30T21:55:30.343Z,95053.35
2018-09-30T21:57:59.168Z,95057.29
2018-09-30T22:00:33.275Z,95062.41
2018-09-30T22:03:02.253Z,95052.11
2018-09-30T22:05:31.164Z,95057.48
2018-09-30T22:08:00.120Z,95051.61
2018-09-30T22:10:29.075Z,95046.78
2018-09-30T22:12:58.047Z,95040.42
2018-09-30T22:15:26.960Z,95042.04
2018-09-30T22:17:56.019Z,95034.97
2018-09-30T22:20:24.967Z,95033.35
2018-09-30T22:22:53.851Z,95035.55
2018-09-30T22:25:22.696Z,95025.67
2018-09-30T22:27:51.628Z,95023.35
2018-09-30T22:30:20.554Z,95027.80
2018-09-30T22:32:49.465Z,95024.58
2018-09-30T22:35:18.312Z,95019.41
2018-09-30T22:37:47.084Z,95012.23
2018-09-30T22:40:15.984Z,95023.58
2018-09-30T22:42:44.975Z,95018.41
2018-09-30T22:45:13.804Z,95014.66
2018-09-30T22:47:42.743Z,95021.03
2018-09-30T22:50:11.617Z,95010.03
2018-09-30T22:52:40.419Z,95018.52
2018-09-30T22:55:09.252Z,95018.52
2018-09-30T22:57:38.077Z,95013.35
2018-09-30T23:00:07.385Z,95013.97
2018-09-30T23:02:36.259Z,95011.84
2018-09-30T23:05:05.568Z,95002.66
2018-09-30T23:07:34.419Z,95006.70
2018-09-30T23:10:03.364Z,95007.20
2018-09-30T23:12:32.224Z,94999.14
2018-09-30T23:15:01.107Z,95003.16
2018-09-30T23:17:29.998Z,94993.86
2018-09-30T23:19:58.780Z,94997.71
2018-09-30T23:22:27.640Z,94990.53
2018-09-30T23:24:56.428Z,94993.55
2018-09-30T23:27:25.258Z,94991.03
2018-09-30T23:29:54.151Z,94986.29
2018-09-30T23:32:23.047Z,94980.84
2018-09-30T23:34:51.826Z,94984.08
2018-09-30T23:37:20.723Z,94982.46
2018-09-30T23:39:49.511Z,94984.67
2018-09-30T23:42:18.371Z,94989.03
2018-09-30T23:44:47.215Z,94977.10
2018-09-30T23:47:16.065Z,94973.86
2018-09-30T23:49:44.843Z,94973.36
2018-09-30T23:52:13.705Z,94970.45
2018-09-30T23:54:42.472Z,94966.41
2018-09-30T23:57:11.278Z,94965.20
2018-09-30T23:59:40.201Z,94964.28
